Parma — V2OZ9 — position and weather

sailwx.info

Track history (hours):
 
Tides and Currents Weather Stations Pressure Air Temp Water Temp Dewpoint Dewpoint Depression Visibility Wind Speed Wind Dir Waves Ship Positions

Parma

Last reported at 2014-Jul-31 18:33 UTC. Time now 2014-Jul-31 19:34 UTC.
Position N 51°28' E 000°21'.

MMSI: 279073176.

Date/timePositionNaut miles runAvg speedWind from/ knotsBaromVisibWave heightAir tempDewpointWater temp
2014-Jul-31 18:33N 51°28' E 000°21'0 0.0
2014-Jul-31 17:33N 51°28' E 000°21'0 0.0
2014-Jul-31 16:33N 51°28' E 000°21'0 0.0
2014-Jul-31 15:22N 51°28' E 000°21'0 0.0
2014-Jul-31 14:33N 51°28' E 000°21'0 0.0
2014-Jul-31 13:33N 51°28' E 000°21'0 0.0
2014-Jul-31 12:33N 51°28' E 000°21'0 0.0
2014-Jul-31 11:33N 51°28' E 000°21'0 0.0
2014-Jul-31 10:33N 51°28' E 000°21'0 0.0
2014-Jul-31 09:33N 51°28' E 000°21'0 0.0
2014-Jul-31 08:33N 51°28' E 000°21'0 0.0
2014-Jul-31 07:33N 51°28' E 000°21'0 0.0
2014-Jul-31 06:33N 51°28' E 000°21'0 0.0
2014-Jul-31 05:33N 51°28' E 000°21'0 0.0
2014-Jul-31 04:33N 51°28' E 000°21'0 0.0
2014-Jul-31 03:33N 51°28' E 000°21'1 0.6
2014-Jul-31 02:33N 51°27' E 000°21'5 4.9
2014-Jul-31 01:34N 51°29' E 000°28'8 7.7
2014-Jul-31 00:33N 51°30' E 000°40'9 9.1
2014-Jul-30 23:33N 51°30' E 000°55'4 3.3
2014-Jul-30 22:16N 51°31' E 001°01'0 0.1
2014-Jul-30 21:31N 51°31' E 001°01'0 0.0
2014-Jul-30 20:28N 51°31' E 001°01'0 0.0
2014-Jul-30 19:25N 51°31' E 001°01'0 0.0
2014-Jul-30 18:28N 51°31' E 001°01'0 0.0
2014-Jul-30 17:28N 51°31' E 001°01'0 0.0
2014-Jul-30 16:28N 51°31' E 001°01'0 0.0
2014-Jul-30 15:28N 51°31' E 001°01'0 0.1
2014-Jul-30 14:31N 51°31' E 001°01'0 0.0
2014-Jul-30 13:31N 51°31' E 001°01'0 0.0
2014-Jul-30 12:16N 51°31' E 001°01'0 0.0
2014-Jul-30 11:31N 51°31' E 001°01'0 0.0
2014-Jul-30 10:31N 51°31' E 001°01'0 0.0
2014-Jul-30 09:31N 51°31' E 001°01'2 1.6
2014-Jul-30 08:33N 51°31' E 000°59'7 6.8
2014-Jul-30 07:33N 51°29' E 001°09'10 9.8
2014-Jul-30 06:33N 51°29' E 001°25'9 9.4
2014-Jul-30 05:33N 51°33' E 001°38'8 8.1
2014-Jul-30 04:33N 51°40' E 001°45'8 8.5
2014-Jul-30 03:33N 51°49' E 001°43'9 8.6
2014-Jul-30 02:33N 51°57' E 001°45'9 9.1
2014-Jul-30 01:33N 52°06' E 001°47'1110.2
2014-Jul-30 00:28N 52°17' E 001°53'1011.1
2014-Jul-29 23:33N 52°27' E 001°52'9 8.7
2014-Jul-29 22:33N 52°34' E 001°44'2 1.6
2014-Jul-29 21:32N 52°36' E 001°44'0 0.0
2014-Jul-29 20:32N 52°36' E 001°44'0 0.0
2014-Jul-29 19:32N 52°36' E 001°44'0 0.0
2014-Jul-29 18:32N 52°36' E 001°44'0 0.0
2014-Jul-29 17:32N 52°36' E 001°44'0 0.0
2014-Jul-29 16:32N 52°36' E 001°44'0 0.0
2014-Jul-29 15:32N 52°36' E 001°44'0 0.0
2014-Jul-29 14:32N 52°36' E 001°44'0 0.0
2014-Jul-29 13:32N 52°36' E 001°44'0 0.0
2014-Jul-29 12:32N 52°36' E 001°44'0 0.0
2014-Jul-29 11:32N 52°36' E 001°44'0 0.0
2014-Jul-29 10:32N 52°36' E 001°44'0 0.0
2014-Jul-29 09:32N 52°36' E 001°44'0 0.0
2014-Jul-29 08:32N 52°36' E 001°44'0 0.0
2014-Jul-29 07:32N 52°36' E 001°44'0 0.0
2014-Jul-29 06:32N 52°36' E 001°44'0 0.0
2014-Jul-29 05:32N 52°36' E 001°44'0 0.0
2014-Jul-29 04:32N 52°36' E 001°44'0 0.0
2014-Jul-29 03:32N 52°36' E 001°44'0 0.0
2014-Jul-29 02:32N 52°36' E 001°44'0 0.0
2014-Jul-29 01:32N 52°36' E 001°44'0 0.0
2014-Jul-29 00:32N 52°36' E 001°44'0 0.0
2014-Jul-28 23:32N 52°36' E 001°44'0 0.0
2014-Jul-28 22:32N 52°36' E 001°44'0 0.0
2014-Jul-28 21:32N 52°36' E 001°44'0 0.0
2014-Jul-28 20:32N 52°36' E 001°44'0 0.0
2014-Jul-28 19:20N 52°36' E 001°44'0 0.0
2014-Jul-28 18:32N 52°36' E 001°44'0 0.0
2014-Jul-28 17:32N 52°36' E 001°44'0 0.0
2014-Jul-28 16:32N 52°36' E 001°44'0 0.0
2014-Jul-28 15:32N 52°36' E 001°44'0 0.0
2014-Jul-28 14:29N 52°36' E 001°44'0 0.0
2014-Jul-28 13:32N 52°36' E 001°44'0 0.0
2014-Jul-28 12:32N 52°36' E 001°44'0 0.0
2014-Jul-28 11:32N 52°36' E 001°44'0 0.0
2014-Jul-28 10:32N 52°36' E 001°44'0 0.0
2014-Jul-28 09:32N 52°36' E 001°44'0 0.0
2014-Jul-28 08:29N 52°36' E 001°44'0 0.0
2014-Jul-28 07:32N 52°36' E 001°44'0 0.0
2014-Jul-28 06:32N 52°36' E 001°44'0 0.0
2014-Jul-28 05:32N 52°36' E 001°44'0 0.0
2014-Jul-28 04:32N 52°36' E 001°44'0 0.0
2014-Jul-28 03:32N 52°36' E 001°44'0 0.0
2014-Jul-28 02:32N 52°36' E 001°44'0 0.0
2014-Jul-28 01:32N 52°36' E 001°44'0 0.0
2014-Jul-28 00:32N 52°36' E 001°44'0 0.0
2014-Jul-27 23:32N 52°36' E 001°44'0 0.0
2014-Jul-27 22:32N 52°36' E 001°44'0 0.0
2014-Jul-27 21:32N 52°36' E 001°44'0 0.0
2014-Jul-27 20:32N 52°36' E 001°44'0 0.0
2014-Jul-27 19:32N 52°36' E 001°44'0 0.0
2014-Jul-27 18:33N 52°36' E 001°44'0 0.0
2014-Jul-27 17:33N 52°36' E 001°44'0 0.0
2014-Jul-27 16:33N 52°36' E 001°44'0 0.0
2014-Jul-27 15:33N 52°36' E 001°44'0 0.0
2014-Jul-27 14:33N 52°36' E 001°44'0 0.0
2014-Jul-27 13:33N 52°36' E 001°44'0 0.0
2014-Jul-27 12:33N 52°36' E 001°44'0 0.0
2014-Jul-27 11:34N 52°36' E 001°44'0 0.0
2014-Jul-27 10:34N 52°36' E 001°44'0 0.0
2014-Jul-27 09:34N 52°36' E 001°44'0 0.0
2014-Jul-27 08:33N 52°36' E 001°44'0 0.0
2014-Jul-27 07:33N 52°36' E 001°44'0 0.0
2014-Jul-27 06:33N 52°36' E 001°44'0 0.0
2014-Jul-27 05:33N 52°36' E 001°44'0 0.0
2014-Jul-27 04:34N 52°36' E 001°44'0 0.0
2014-Jul-27 03:34N 52°36' E 001°44'0 0.0
2014-Jul-27 02:33N 52°36' E 001°44'0 0.0
2014-Jul-27 01:34N 52°36' E 001°44'0 0.0
2014-Jul-27 00:33N 52°36' E 001°44'0 0.0
2014-Jul-26 23:33N 52°36' E 001°44'0 0.0
2014-Jul-26 22:33N 52°36' E 001°44'0 0.0
2014-Jul-26 21:33N 52°36' E 001°44'0 0.0
2014-Jul-26 20:33N 52°36' E 001°44'0 0.0
2014-Jul-26 19:33N 52°36' E 001°44'0 0.0
2014-Jul-26 18:34N 52°36' E 001°44'1 0.6
2014-Jul-26 17:33N 52°35' E 001°44'2 1.6
2014-Jul-26 16:34N 52°34' E 001°45'0 0.4
2014-Jul-26 15:31N 52°34' E 001°46'0 0.1
2014-Jul-26 14:31N 52°34' E 001°46'0 0.0
2014-Jul-26 13:31N 52°34' E 001°46'0 0.0
2014-Jul-26 12:31N 52°34' E 001°46'0 0.1
2014-Jul-26 11:28N 52°34' E 001°46'0 0.1
2014-Jul-26 10:31N 52°34' E 001°46'0 0.0
2014-Jul-26 09:31N 52°34' E 001°46'0 0.0
2014-Jul-26 08:31N 52°34' E 001°46'0 0.0
2014-Jul-26 07:31N 52°34' E 001°46'0 0.0
2014-Jul-26 06:31N 52°34' E 001°46'0 0.0
2014-Jul-26 05:31N 52°34' E 001°46'0 0.0
2014-Jul-26 04:31N 52°34' E 001°46'0 0.1
2014-Jul-26 03:31N 52°34' E 001°46'0 0.0
2014-Jul-26 02:31N 52°34' E 001°46'0 0.0
2014-Jul-26 01:31N 52°34' E 001°46'0 0.0
2014-Jul-26 00:31N 52°34' E 001°46'0 0.1
2014-Jul-25 23:31N 52°34' E 001°46'1 0.9
2014-Jul-25 22:34N 52°34' E 001°47'9 9.3
2014-Jul-25 21:33N 52°25' E 001°53'10 9.3
2014-Jul-25 20:26N 52°15' E 001°52'8 9.4
2014-Jul-25 19:33N 52°06' E 001°51'9 9.2
2014-Jul-25 18:33N 51°57' E 001°49'1010.4
2014-Jul-25 17:34N 51°47' E 001°49'1010.4
2014-Jul-25 16:34N 51°37' E 001°47'1211.6
2014-Jul-25 15:34N 51°29' E 001°34'6 6.3
2014-Jul-25 14:34N 51°25' E 001°25'0 0.0
2014-Jul-25 13:34N 51°25' E 001°25'0 0.1
2014-Jul-25 12:34N 51°25' E 001°25'0 0.1
2014-Jul-25 11:33N 51°25' E 001°25'0 0.0
2014-Jul-25 10:33N 51°25' E 001°25'0 0.0
2014-Jul-25 09:33N 51°25' E 001°25'0 0.0
2014-Jul-25 08:33N 51°25' E 001°25'0 0.0
2014-Jul-25 07:34N 51°25' E 001°25'0 0.0
2014-Jul-25 06:34N 51°25' E 001°25'0 0.0
2014-Jul-25 05:34N 51°25' E 001°25'0 0.1
2014-Jul-25 04:34N 51°25' E 001°25'0 0.0
2014-Jul-25 03:34N 51°25' E 001°25'0 0.0
2014-Jul-25 02:33N 51°25' E 001°25'0 0.0
2014-Jul-25 01:34N 51°25' E 001°25'0 0.0
2014-Jul-25 00:33N 51°25' E 001°25'0 0.1
2014-Jul-24 23:34N 51°25' E 001°25'0 0.1
2014-Jul-24 22:33N 51°25' E 001°25'0 0.0
2014-Jul-24 21:33N 51°25' E 001°25'0 0.0
2014-Jul-24 20:33N 51°25' E 001°25'0 0.0
2014-Jul-24 19:33N 51°25' E 001°25'0 0.0
2014-Jul-24 18:33N 51°25' E 001°25'0 0.0
2014-Jul-24 17:33N 51°25' E 001°25'0 0.0
2014-Jul-24 16:34N 51°25' E 001°25'0 0.1
2014-Jul-24 15:33N 51°25' E 001°25'0 0.0
2014-Jul-24 14:33N 51°25' E 001°25'0 0.0
2014-Jul-24 13:33N 51°25' E 001°25'0 0.0
2014-Jul-24 12:33N 51°25' E 001°25'0 0.1
2014-Jul-24 11:33N 51°25' E 001°25'0 0.1
2014-Jul-24 10:33N 51°25' E 001°25'0 0.0
2014-Jul-24 09:33N 51°25' E 001°25'0 0.0
2014-Jul-24 08:33N 51°25' E 001°25'0 0.1
2014-Jul-24 07:33N 51°25' E 001°25'0 0.0
2014-Jul-24 06:33N 51°25' E 001°25'0 0.0
2014-Jul-24 05:33N 51°25' E 001°25'0 0.0
2014-Jul-24 04:33N 51°25' E 001°25'0 0.1
2014-Jul-24 03:33N 51°25' E 001°25'0 0.1
2014-Jul-24 02:33N 51°25' E 001°25'0 0.0
2014-Jul-24 01:33N 51°25' E 001°25'0 0.0
2014-Jul-24 00:33N 51°25' E 001°25'0 0.1
2014-Jul-23 23:33N 51°25' E 001°25'0 0.1
2014-Jul-23 22:33N 51°25' E 001°25'0 0.0
2014-Jul-23 21:33N 51°25' E 001°25'0 0.0
2014-Jul-23 20:33N 51°25' E 001°25'0 0.0
2014-Jul-23 19:33N 51°25' E 001°25'0 0.0
2014-Jul-23 18:33N 51°25' E 001°25'0 0.0
2014-Jul-23 17:33N 51°25' E 001°25'0 0.0
2014-Jul-23 16:33N 51°25' E 001°25'0 0.0
2014-Jul-23 15:33N 51°25' E 001°25'0 0.1
2014-Jul-23 14:33N 51°25' E 001°25'0 0.0
2014-Jul-23 13:33N 51°25' E 001°25'3 2.5
2014-Jul-23 12:33N 51°27' E 001°26'1212.1
2014-Jul-23 11:34N 51°29' E 001°07'1010.1
2014-Jul-23 10:33N 51°29' E 000°51'6 6.0
2014-Jul-23 09:32N 51°24' E 000°45'1 0.4
2014-Jul-23 07:14N 51°23' E 000°46'0 0.0
2014-Jul-23 05:20N 51°23' E 000°46'0 0.0
2014-Jul-23 04:23N 51°23' E 000°46'0 0.0
2014-Jul-23 03:14N 51°23' E 000°46'0 0.0
2014-Jul-23 02:32N 51°23' E 000°46'0 0.0
2014-Jul-23 01:32N 51°23' E 000°46'0 0.0
2014-Jul-23 00:29N 51°23' E 000°46'0 0.0
2014-Jul-22 23:23N 51°23' E 000°46'0 0.0
2014-Jul-22 22:32N 51°23' E 000°46'0 0.0
2014-Jul-22 21:23N 51°23' E 000°46'0 0.0
2014-Jul-22 20:26N 51°23' E 000°46'0 0.0
2014-Jul-22 14:05N 51°23' E 000°46'0 0.0
2014-Jul-22 10:23N 51°23' E 000°46'0 0.0
2014-Jul-22 08:29N 51°23' E 000°46'0 0.0
2014-Jul-22 07:32N 51°23' E 000°46'0 0.0
2014-Jul-22 06:11N 51°23' E 000°46'0 0.0
2014-Jul-22 05:11N 51°23' E 000°46'0 0.0
2014-Jul-22 04:23N 51°23' E 000°46'0 0.0
2014-Jul-22 03:11N 51°23' E 000°46'0 0.0
2014-Jul-22 02:23N 51°23' E 000°46'0 0.0
2014-Jul-22 01:11N 51°23' E 000°46'0 0.0
2014-Jul-21 19:29N 51°23' E 000°46'  
Track history (hours):
 
Tides and Currents Weather Stations Pressure Air Temp Water Temp Dewpoint Dewpoint Depression Visibility Wind Speed Wind Dir Waves Ship Positions

Parma

Last reported at 2014-Jul-31 18:33 UTC. Time now 2014-Jul-31 19:34 UTC.
Position N 51°28' E 000°21'.

MMSI: 279073176.

Date/timePositionNaut miles runAvg speedWind from/ knotsBaromVisibWave heightAir tempDewpointWater temp
2014-Jul-31 18:33N 51°28' E 000°21'0 0.0
2014-Jul-31 17:33N 51°28' E 000°21'0 0.0
2014-Jul-31 16:33N 51°28' E 000°21'0 0.0
2014-Jul-31 15:22N 51°28' E 000°21'0 0.0
2014-Jul-31 14:33N 51°28' E 000°21'0 0.0
2014-Jul-31 13:33N 51°28' E 000°21'0 0.0
2014-Jul-31 12:33N 51°28' E 000°21'0 0.0
2014-Jul-31 11:33N 51°28' E 000°21'0 0.0
2014-Jul-31 10:33N 51°28' E 000°21'0 0.0
2014-Jul-31 09:33N 51°28' E 000°21'0 0.0
2014-Jul-31 08:33N 51°28' E 000°21'0 0.0
2014-Jul-31 07:33N 51°28' E 000°21'0 0.0
2014-Jul-31 06:33N 51°28' E 000°21'0 0.0
2014-Jul-31 05:33N 51°28' E 000°21'0 0.0
2014-Jul-31 04:33N 51°28' E 000°21'0 0.0
2014-Jul-31 03:33N 51°28' E 000°21'1 0.6
2014-Jul-31 02:33N 51°27' E 000°21'5 4.9
2014-Jul-31 01:34N 51°29' E 000°28'8 7.7
2014-Jul-31 00:33N 51°30' E 000°40'9 9.1
2014-Jul-30 23:33N 51°30' E 000°55'4 3.3
2014-Jul-30 22:16N 51°31' E 001°01'0 0.1
2014-Jul-30 21:31N 51°31' E 001°01'0 0.0
2014-Jul-30 20:28N 51°31' E 001°01'0 0.0
2014-Jul-30 19:25N 51°31' E 001°01'0 0.0
2014-Jul-30 18:28N 51°31' E 001°01'0 0.0
2014-Jul-30 17:28N 51°31' E 001°01'0 0.0
2014-Jul-30 16:28N 51°31' E 001°01'0 0.0
2014-Jul-30 15:28N 51°31' E 001°01'0 0.1
2014-Jul-30 14:31N 51°31' E 001°01'0 0.0
2014-Jul-30 13:31N 51°31' E 001°01'0 0.0
2014-Jul-30 12:16N 51°31' E 001°01'0 0.0
2014-Jul-30 11:31N 51°31' E 001°01'0 0.0
2014-Jul-30 10:31N 51°31' E 001°01'0 0.0
2014-Jul-30 09:31N 51°31' E 001°01'2 1.6
2014-Jul-30 08:33N 51°31' E 000°59'7 6.8
2014-Jul-30 07:33N 51°29' E 001°09'10 9.8
2014-Jul-30 06:33N 51°29' E 001°25'9 9.4
2014-Jul-30 05:33N 51°33' E 001°38'8 8.1
2014-Jul-30 04:33N 51°40' E 001°45'8 8.5
2014-Jul-30 03:33N 51°49' E 001°43'9 8.6
2014-Jul-30 02:33N 51°57' E 001°45'9 9.1
2014-Jul-30 01:33N 52°06' E 001°47'1110.2
2014-Jul-30 00:28N 52°17' E 001°53'1011.1
2014-Jul-29 23:33N 52°27' E 001°52'9 8.7
2014-Jul-29 22:33N 52°34' E 001°44'2 1.6
2014-Jul-29 21:32N 52°36' E 001°44'0 0.0
2014-Jul-29 20:32N 52°36' E 001°44'0 0.0
2014-Jul-29 19:32N 52°36' E 001°44'0 0.0
2014-Jul-29 18:32N 52°36' E 001°44'0 0.0
2014-Jul-29 17:32N 52°36' E 001°44'0 0.0
2014-Jul-29 16:32N 52°36' E 001°44'0 0.0
2014-Jul-29 15:32N 52°36' E 001°44'0 0.0
2014-Jul-29 14:32N 52°36' E 001°44'0 0.0
2014-Jul-29 13:32N 52°36' E 001°44'0 0.0
2014-Jul-29 12:32N 52°36' E 001°44'0 0.0
2014-Jul-29 11:32N 52°36' E 001°44'0 0.0
2014-Jul-29 10:32N 52°36' E 001°44'0 0.0
2014-Jul-29 09:32N 52°36' E 001°44'0 0.0
2014-Jul-29 08:32N 52°36' E 001°44'0 0.0
2014-Jul-29 07:32N 52°36' E 001°44'0 0.0
2014-Jul-29 06:32N 52°36' E 001°44'0 0.0
2014-Jul-29 05:32N 52°36' E 001°44'0 0.0
2014-Jul-29 04:32N 52°36' E 001°44'0 0.0
2014-Jul-29 03:32N 52°36' E 001°44'0 0.0
2014-Jul-29 02:32N 52°36' E 001°44'0 0.0
2014-Jul-29 01:32N 52°36' E 001°44'0 0.0
2014-Jul-29 00:32N 52°36' E 001°44'0 0.0
2014-Jul-28 23:32N 52°36' E 001°44'0 0.0
2014-Jul-28 22:32N 52°36' E 001°44'0 0.0
2014-Jul-28 21:32N 52°36' E 001°44'0 0.0
2014-Jul-28 20:32N 52°36' E 001°44'0 0.0
2014-Jul-28 19:20N 52°36' E 001°44'0 0.0
2014-Jul-28 18:32N 52°36' E 001°44'0 0.0
2014-Jul-28 17:32N 52°36' E 001°44'0 0.0
2014-Jul-28 16:32N 52°36' E 001°44'0 0.0
2014-Jul-28 15:32N 52°36' E 001°44'0 0.0
2014-Jul-28 14:29N 52°36' E 001°44'0 0.0
2014-Jul-28 13:32N 52°36' E 001°44'0 0.0
2014-Jul-28 12:32N 52°36' E 001°44'0 0.0
2014-Jul-28 11:32N 52°36' E 001°44'0 0.0
2014-Jul-28 10:32N 52°36' E 001°44'0 0.0
2014-Jul-28 09:32N 52°36' E 001°44'0 0.0
2014-Jul-28 08:29N 52°36' E 001°44'0 0.0
2014-Jul-28 07:32N 52°36' E 001°44'0 0.0
2014-Jul-28 06:32N 52°36' E 001°44'0 0.0
2014-Jul-28 05:32N 52°36' E 001°44'0 0.0
2014-Jul-28 04:32N 52°36' E 001°44'0 0.0
2014-Jul-28 03:32N 52°36' E 001°44'0 0.0
2014-Jul-28 02:32N 52°36' E 001°44'0 0.0
2014-Jul-28 01:32N 52°36' E 001°44'0 0.0
2014-Jul-28 00:32N 52°36' E 001°44'0 0.0
2014-Jul-27 23:32N 52°36' E 001°44'0 0.0
2014-Jul-27 22:32N 52°36' E 001°44'0 0.0
2014-Jul-27 21:32N 52°36' E 001°44'0 0.0
2014-Jul-27 20:32N 52°36' E 001°44'0 0.0
2014-Jul-27 19:32N 52°36' E 001°44'0 0.0
2014-Jul-27 18:33N 52°36' E 001°44'0 0.0
2014-Jul-27 17:33N 52°36' E 001°44'0 0.0
2014-Jul-27 16:33N 52°36' E 001°44'0 0.0
2014-Jul-27 15:33N 52°36' E 001°44'0 0.0
2014-Jul-27 14:33N 52°36' E 001°44'0 0.0
2014-Jul-27 13:33N 52°36' E 001°44'0 0.0
2014-Jul-27 12:33N 52°36' E 001°44'0 0.0
2014-Jul-27 11:34N 52°36' E 001°44'0 0.0
2014-Jul-27 10:34N 52°36' E 001°44'0 0.0
2014-Jul-27 09:34N 52°36' E 001°44'0 0.0
2014-Jul-27 08:33N 52°36' E 001°44'0 0.0
2014-Jul-27 07:33N 52°36' E 001°44'0 0.0
2014-Jul-27 06:33N 52°36' E 001°44'0 0.0
2014-Jul-27 05:33N 52°36' E 001°44'0 0.0
2014-Jul-27 04:34N 52°36' E 001°44'0 0.0
2014-Jul-27 03:34N 52°36' E 001°44'0 0.0
2014-Jul-27 02:33N 52°36' E 001°44'0 0.0
2014-Jul-27 01:34N 52°36' E 001°44'0 0.0
2014-Jul-27 00:33N 52°36' E 001°44'0 0.0
2014-Jul-26 23:33N 52°36' E 001°44'0 0.0
2014-Jul-26 22:33N 52°36' E 001°44'0 0.0
2014-Jul-26 21:33N 52°36' E 001°44'0 0.0
2014-Jul-26 20:33N 52°36' E 001°44'0 0.0
2014-Jul-26 19:33N 52°36' E 001°44'0 0.0
2014-Jul-26 18:34N 52°36' E 001°44'1 0.6
2014-Jul-26 17:33N 52°35' E 001°44'2 1.6
2014-Jul-26 16:34N 52°34' E 001°45'0 0.4
2014-Jul-26 15:31N 52°34' E 001°46'0 0.1
2014-Jul-26 14:31N 52°34' E 001°46'0 0.0
2014-Jul-26 13:31N 52°34' E 001°46'0 0.0
2014-Jul-26 12:31N 52°34' E 001°46'0 0.1
2014-Jul-26 11:28N 52°34' E 001°46'0 0.1
2014-Jul-26 10:31N 52°34' E 001°46'0 0.0
2014-Jul-26 09:31N 52°34' E 001°46'0 0.0
2014-Jul-26 08:31N 52°34' E 001°46'0 0.0
2014-Jul-26 07:31N 52°34' E 001°46'0 0.0
2014-Jul-26 06:31N 52°34' E 001°46'0 0.0
2014-Jul-26 05:31N 52°34' E 001°46'0 0.0
2014-Jul-26 04:31N 52°34' E 001°46'0 0.1
2014-Jul-26 03:31N 52°34' E 001°46'0 0.0
2014-Jul-26 02:31N 52°34' E 001°46'0 0.0
2014-Jul-26 01:31N 52°34' E 001°46'0 0.0
2014-Jul-26 00:31N 52°34' E 001°46'0 0.1
2014-Jul-25 23:31N 52°34' E 001°46'1 0.9
2014-Jul-25 22:34N 52°34' E 001°47'9 9.3
2014-Jul-25 21:33N 52°25' E 001°53'10 9.3
2014-Jul-25 20:26N 52°15' E 001°52'8 9.4
2014-Jul-25 19:33N 52°06' E 001°51'9 9.2
2014-Jul-25 18:33N 51°57' E 001°49'1010.4
2014-Jul-25 17:34N 51°47' E 001°49'1010.4
2014-Jul-25 16:34N 51°37' E 001°47'1211.6
2014-Jul-25 15:34N 51°29' E 001°34'6 6.3
2014-Jul-25 14:34N 51°25' E 001°25'0 0.0
2014-Jul-25 13:34N 51°25' E 001°25'0 0.1
2014-Jul-25 12:34N 51°25' E 001°25'0 0.1
2014-Jul-25 11:33N 51°25' E 001°25'0 0.0
2014-Jul-25 10:33N 51°25' E 001°25'0 0.0
2014-Jul-25 09:33N 51°25' E 001°25'0 0.0
2014-Jul-25 08:33N 51°25' E 001°25'0 0.0
2014-Jul-25 07:34N 51°25' E 001°25'0 0.0
2014-Jul-25 06:34N 51°25' E 001°25'0 0.0
2014-Jul-25 05:34N 51°25' E 001°25'0 0.1
2014-Jul-25 04:34N 51°25' E 001°25'0 0.0
2014-Jul-25 03:34N 51°25' E 001°25'0 0.0
2014-Jul-25 02:33N 51°25' E 001°25'0 0.0
2014-Jul-25 01:34N 51°25' E 001°25'0 0.0
2014-Jul-25 00:33N 51°25' E 001°25'0 0.1
2014-Jul-24 23:34N 51°25' E 001°25'0 0.1
2014-Jul-24 22:33N 51°25' E 001°25'0 0.0
2014-Jul-24 21:33N 51°25' E 001°25'0 0.0
2014-Jul-24 20:33N 51°25' E 001°25'0 0.0
2014-Jul-24 19:33N 51°25' E 001°25'0 0.0
2014-Jul-24 18:33N 51°25' E 001°25'0 0.0
2014-Jul-24 17:33N 51°25' E 001°25'0 0.0
2014-Jul-24 16:34N 51°25' E 001°25'0 0.1
2014-Jul-24 15:33N 51°25' E 001°25'0 0.0
2014-Jul-24 14:33N 51°25' E 001°25'0 0.0
2014-Jul-24 13:33N 51°25' E 001°25'0 0.0
2014-Jul-24 12:33N 51°25' E 001°25'0 0.1
2014-Jul-24 11:33N 51°25' E 001°25'0 0.1
2014-Jul-24 10:33N 51°25' E 001°25'0 0.0
2014-Jul-24 09:33N 51°25' E 001°25'0 0.0
2014-Jul-24 08:33N 51°25' E 001°25'0 0.1
2014-Jul-24 07:33N 51°25' E 001°25'0 0.0
2014-Jul-24 06:33N 51°25' E 001°25'0 0.0
2014-Jul-24 05:33N 51°25' E 001°25'0 0.0
2014-Jul-24 04:33N 51°25' E 001°25'0 0.1
2014-Jul-24 03:33N 51°25' E 001°25'0 0.1
2014-Jul-24 02:33N 51°25' E 001°25'0 0.0
2014-Jul-24 01:33N 51°25' E 001°25'0 0.0
2014-Jul-24 00:33N 51°25' E 001°25'0 0.1
2014-Jul-23 23:33N 51°25' E 001°25'0 0.1
2014-Jul-23 22:33N 51°25' E 001°25'0 0.0
2014-Jul-23 21:33N 51°25' E 001°25'0 0.0
2014-Jul-23 20:33N 51°25' E 001°25'0 0.0
2014-Jul-23 19:33N 51°25' E 001°25'0 0.0
2014-Jul-23 18:33N 51°25' E 001°25'0 0.0
2014-Jul-23 17:33N 51°25' E 001°25'0 0.0
2014-Jul-23 16:33N 51°25' E 001°25'0 0.0
2014-Jul-23 15:33N 51°25' E 001°25'0 0.1
2014-Jul-23 14:33N 51°25' E 001°25'0 0.0
2014-Jul-23 13:33N 51°25' E 001°25'3 2.5
2014-Jul-23 12:33N 51°27' E 001°26'1212.1
2014-Jul-23 11:34N 51°29' E 001°07'1010.1
2014-Jul-23 10:33N 51°29' E 000°51'6 6.0
2014-Jul-23 09:32N 51°24' E 000°45'1 0.4
2014-Jul-23 07:14N 51°23' E 000°46'0 0.0
2014-Jul-23 05:20N 51°23' E 000°46'0 0.0
2014-Jul-23 04:23N 51°23' E 000°46'0 0.0
2014-Jul-23 03:14N 51°23' E 000°46'0 0.0
2014-Jul-23 02:32N 51°23' E 000°46'0 0.0
2014-Jul-23 01:32N 51°23' E 000°46'0 0.0
2014-Jul-23 00:29N 51°23' E 000°46'0 0.0
2014-Jul-22 23:23N 51°23' E 000°46'0 0.0
2014-Jul-22 22:32N 51°23' E 000°46'0 0.0
2014-Jul-22 21:23N 51°23' E 000°46'0 0.0
2014-Jul-22 20:26N 51°23' E 000°46'0 0.0
2014-Jul-22 14:05N 51°23' E 000°46'0 0.0
2014-Jul-22 10:23N 51°23' E 000°46'0 0.0
2014-Jul-22 08:29N 51°23' E 000°46'0 0.0
2014-Jul-22 07:32N 51°23' E 000°46'0 0.0
2014-Jul-22 06:11N 51°23' E 000°46'0 0.0
2014-Jul-22 05:11N 51°23' E 000°46'0 0.0
2014-Jul-22 04:23N 51°23' E 000°46'0 0.0
2014-Jul-22 03:11N 51°23' E 000°46'0 0.0
2014-Jul-22 02:23N 51°23' E 000°46'0 0.0
2014-Jul-22 01:11N 51°23' E 000°46'0 0.0
2014-Jul-21 19:29N 51°23' E 000°46'  

Dump ship's entire track history